RYR232 LROP-EDFH
Flight info
| Callsign | RYR232 |
|---|---|
| Flight time | N/A |
| Altitude | 38000 |
| Route | SOKRU DCT EMPOS DCT NEPOT DCT BEGLA DCT DEXIT DCT PETIX Z744 LEPSA/N0352F240 Z104 OLGIL OLGIL4B |
| Aircraft | B738/M-SDE2E3FGHIRWXY/LB1 |
Departure
| Time | 2026-05-04 18:13 |
|---|---|
| Airport | Bucharest Henri Coandă International Airport (LROP) |
Arrival
| Time | N/A |
|---|---|
| Airport | Frankfurt-Hahn Airport (EDFH) |
| Time | Latitude | Longitude | Altitude | Speed | Heading |
|---|---|---|---|---|---|
| 2026-05-04 17:51 | 44.57017 | 26.08134 | 322 ft | 0 kts | 354° |
| 2026-05-04 18:02 | 44.57013 | 26.08135 | 322 ft | 2 kts | 354° |
| 2026-05-04 18:02 | 44.56997 | 26.08137 | 322 ft | 2 kts | 354° |
| 2026-05-04 18:03 | 44.56981 | 26.08139 | 319 ft | 2 kts | 354° |
| 2026-05-04 18:03 | 44.56965 | 26.08142 | 318 ft | 2 kts | 354° |
| 2026-05-04 18:03 | 44.56949 | 26.08144 | 319 ft | 2 kts | 354° |
| 2026-05-04 18:03 | 44.56933 | 26.08143 | 319 ft | 2 kts | 75° |
| 2026-05-04 18:04 | 44.56932 | 26.08137 | 318 ft | 0 kts | 81° |
| 2026-05-04 18:06 | 44.56933 | 26.08143 | 319 ft | 2 kts | 78° |
| 2026-05-04 18:06 | 44.56939 | 26.08179 | 322 ft | 6 kts | 79° |
| 2026-05-04 18:06 | 44.56944 | 26.08238 | 322 ft | 6 kts | 84° |
| 2026-05-04 18:07 | 44.56949 | 26.08299 | 320 ft | 6 kts | 82° |
| 2026-05-04 18:07 | 44.56957 | 26.08358 | 322 ft | 6 kts | 70° |
| 2026-05-04 18:07 | 44.56991 | 26.08389 | 322 ft | 6 kts | 6° |
| 2026-05-04 18:07 | 44.57033 | 26.08385 | 322 ft | 6 kts | 354° |
| 2026-05-04 18:08 | 44.57075 | 26.08379 | 322 ft | 6 kts | 353° |
| 2026-05-04 18:08 | 44.57116 | 26.08372 | 320 ft | 6 kts | 353° |
| 2026-05-04 18:08 | 44.57156 | 26.08366 | 322 ft | 6 kts | 353° |
| 2026-05-04 18:08 | 44.57196 | 26.08362 | 322 ft | 6 kts | 2° |
| 2026-05-04 18:09 | 44.57233 | 26.08444 | 322 ft | 6 kts | 92° |
| 2026-05-04 18:09 | 44.57283 | 26.08500 | 322 ft | 6 kts | 343° |
| 2026-05-04 18:10 | 44.57322 | 26.08492 | 322 ft | 6 kts | 352° |
| 2026-05-04 18:10 | 44.57360 | 26.08485 | 320 ft | 6 kts | 354° |
| 2026-05-04 18:10 | 44.57398 | 26.08480 | 320 ft | 5 kts | 355° |
| 2026-05-04 18:10 | 44.57436 | 26.08475 | 321 ft | 5 kts | 355° |
| 2026-05-04 18:11 | 44.57474 | 26.08470 | 319 ft | 6 kts | 354° |
| 2026-05-04 18:11 | 44.57536 | 26.08461 | 321 ft | 11 kts | 354° |
| 2026-05-04 18:11 | 44.57617 | 26.08453 | 322 ft | 12 kts | 4° |
| 2026-05-04 18:11 | 44.57659 | 26.08480 | 322 ft | 1 kts | 54° |
| 2026-05-04 18:12 | 44.57662 | 26.08489 | 321 ft | 1 kts | 67° |
| 2026-05-04 18:12 | 44.57670 | 26.08531 | 321 ft | 10 kts | 82° |
| 2026-05-04 18:12 | 44.57679 | 26.08628 | 322 ft | 10 kts | 86° |
| 2026-05-04 18:12 | 44.57680 | 26.08644 | 322 ft | 2 kts | 86° |
| 2026-05-04 18:13 | 44.57704 | 26.08994 | 321 ft | 74 kts | 84° |
| 2026-05-04 18:13 | 44.57783 | 26.10044 | 321 ft | 139 kts | 84° |
| 2026-05-04 18:13 | 44.57978 | 26.13357 | 1128 ft | 192 kts | 86° |
| 2026-05-04 18:14 | 44.58097 | 26.15272 | 1882 ft | 198 kts | 85° |
| 2026-05-04 18:14 | 44.58195 | 26.17159 | 2772 ft | 197 kts | 85° |
| 2026-05-04 18:14 | 44.58369 | 26.19128 | 3269 ft | 214 kts | 69° |
| 2026-05-04 18:15 | 44.60907 | 26.21174 | 4049 ft | 236 kts | 353° |
| 2026-05-04 18:15 | 44.63484 | 26.18459 | 5329 ft | 245 kts | 306° |
| 2026-05-04 18:15 | 44.64368 | 26.16408 | 5961 ft | 247 kts | 304° |
| 2026-05-04 18:16 | 44.65225 | 26.14303 | 6576 ft | 253 kts | 305° |
| 2026-05-04 18:16 | 44.66124 | 26.12101 | 6980 ft | 269 kts | 305° |
| 2026-05-04 18:16 | 44.67051 | 26.09846 | 7673 ft | 276 kts | 305° |
| 2026-05-04 18:17 | 44.69168 | 26.04865 | 8239 ft | 321 kts | 307° |
| 2026-05-04 18:17 | 44.70385 | 26.02167 | 8814 ft | 329 kts | 308° |
| 2026-05-04 18:17 | 44.72668 | 25.96756 | 10836 ft | 321 kts | 305° |
| 2026-05-04 18:18 | 44.73810 | 25.93963 | 11264 ft | 335 kts | 305° |
| 2026-05-04 18:18 | 44.74996 | 25.91085 | 11884 ft | 342 kts | 305° |
| 2026-05-04 18:18 | 44.76202 | 25.88177 | 12598 ft | 347 kts | 306° |
| 2026-05-04 18:18 | 44.77419 | 25.85264 | 13321 ft | 352 kts | 306° |
| 2026-05-04 18:19 | 44.79950 | 25.79241 | 14698 ft | 362 kts | 305° |
| 2026-05-04 18:19 | 44.81242 | 25.76173 | 15418 ft | 366 kts | 305° |
| 2026-05-04 18:19 | 44.82545 | 25.73076 | 16128 ft | 370 kts | 305° |
| 2026-05-04 18:20 | 44.83865 | 25.69939 | 16822 ft | 374 kts | 305° |
| 2026-05-04 18:20 | 44.85203 | 25.66757 | 17527 ft | 379 kts | 305° |
| 2026-05-04 18:20 | 44.86553 | 25.63543 | 18206 ft | 383 kts | 304° |
| 2026-05-04 18:20 | 44.87917 | 25.60292 | 18817 ft | 387 kts | 304° |
| 2026-05-04 18:21 | 44.89287 | 25.57019 | 19528 ft | 387 kts | 304° |
| 2026-05-04 18:21 | 44.90653 | 25.53751 | 20271 ft | 386 kts | 303° |
| 2026-05-04 18:21 | 44.92019 | 25.50482 | 20972 ft | 387 kts | 303° |
| 2026-05-04 18:21 | 44.93388 | 25.47203 | 21631 ft | 388 kts | 302° |
| 2026-05-04 18:22 | 44.94759 | 25.43916 | 22270 ft | 390 kts | 302° |
| 2026-05-04 18:22 | 44.96140 | 25.40602 | 22913 ft | 392 kts | 302° |
| 2026-05-04 18:22 | 44.97504 | 25.37326 | 23541 ft | 393 kts | 301° |
| 2026-05-04 18:22 | 44.98890 | 25.33993 | 24060 ft | 395 kts | 301° |
| 2026-05-04 18:23 | 45.00378 | 25.30710 | 24508 ft | 397 kts | 305° |
| 2026-05-04 18:23 | 45.01986 | 25.27501 | 24945 ft | 401 kts | 306° |
| 2026-05-04 18:23 | 45.03639 | 25.24313 | 25373 ft | 404 kts | 307° |
| 2026-05-04 18:23 | 45.05312 | 25.21110 | 25816 ft | 406 kts | 307° |
| 2026-05-04 18:24 | 45.06991 | 25.17883 | 26253 ft | 409 kts | 306° |
| 2026-05-04 18:24 | 45.08676 | 25.14621 | 26678 ft | 412 kts | 306° |
| 2026-05-04 18:24 | 45.10366 | 25.11330 | 27095 ft | 414 kts | 306° |
| 2026-05-04 18:24 | 45.12064 | 25.08005 | 27520 ft | 417 kts | 305° |
| 2026-05-04 18:25 | 45.13761 | 25.04671 | 27924 ft | 419 kts | 305° |
| 2026-05-04 18:25 | 45.15469 | 25.01307 | 28313 ft | 421 kts | 304° |
| 2026-05-04 18:25 | 45.17186 | 24.97920 | 28703 ft | 424 kts | 304° |
| 2026-05-04 18:25 | 45.18888 | 24.94556 | 29075 ft | 426 kts | 304° |
| 2026-05-04 18:26 | 45.20619 | 24.91132 | 29454 ft | 428 kts | 304° |
| 2026-05-04 18:26 | 45.22358 | 24.87689 | 29822 ft | 430 kts | 303° |
| 2026-05-04 18:26 | 45.24106 | 24.84223 | 30174 ft | 432 kts | 303° |
| 2026-05-04 18:26 | 45.25881 | 24.80699 | 30484 ft | 434 kts | 303° |
| 2026-05-04 18:27 | 45.27642 | 24.77202 | 30769 ft | 436 kts | 303° |
| 2026-05-04 18:27 | 45.29404 | 24.73698 | 31136 ft | 435 kts | 304° |
| 2026-05-04 18:27 | 45.31159 | 24.70202 | 31555 ft | 434 kts | 304° |
| 2026-05-04 18:27 | 45.32906 | 24.66719 | 31939 ft | 433 kts | 304° |
| 2026-05-04 18:28 | 45.34656 | 24.63224 | 32283 ft | 433 kts | 304° |
| 2026-05-04 18:28 | 45.36405 | 24.59728 | 32631 ft | 433 kts | 305° |
| 2026-05-04 18:28 | 45.38149 | 24.56237 | 32997 ft | 433 kts | 305° |
| 2026-05-04 18:28 | 45.39890 | 24.52747 | 33357 ft | 432 kts | 306° |
| 2026-05-04 18:29 | 45.41629 | 24.49258 | 33694 ft | 432 kts | 306° |
| 2026-05-04 18:29 | 45.43363 | 24.45774 | 34065 ft | 431 kts | 306° |
| 2026-05-04 18:29 | 45.45096 | 24.42288 | 34360 ft | 431 kts | 306° |
| 2026-05-04 18:29 | 45.46800 | 24.38856 | 34643 ft | 430 kts | 306° |